Time;durP1;ratioP1;P1;durP2;ratioP2;P2;SDS_P1;SDS_P2;PMS_P1;PMS_P2;Temp;Humidity;BMP_temperature;BMP_pressure;BME280_temperature;BME280_humidity;BME280_pressure;Samples;Min_cycle;Max_cycle;Signal;HPM_P1;HPM_P2
2023/03/08 05:02:30;;;;;;;0.57;0.57;;;1.40;99.90;;;;;;4988563;23;20300;-68
2023/03/08 05:04:57;;;;;;;2.05;1.98;;;1.40;99.90;;;;;;4930879;29;20589;-68
2023/03/08 05:07:24;;;;;;;0.20;0.20;;;1.40;99.90;;;;;;4930294;29;20221;-68
2023/03/08 05:09:51;;;;;;;0.60;0.60;;;1.40;99.90;;;;;;4932295;29;20572;-68
2023/03/08 05:12:17;;;;;;;1.38;1.38;;;1.40;99.90;;;;;;4932005;29;20233;-68
2023/03/08 05:14:44;;;;;;;1.17;0.77;;;1.40;99.90;;;;;;4934971;29;20237;-68
2023/03/08 05:17:11;;;;;;;1.67;1.67;;;1.40;99.90;;;;;;4934840;28;20205;-69
2023/03/08 05:19:39;;;;;;;1.70;1.70;;;1.40;99.90;;;;;;4956536;23;20236;-69
2023/03/08 05:22:05;;;;;;;0.60;0.60;;;1.40;99.90;;;;;;4945468;28;20213;-68
2023/03/08 05:24:32;;;;;;;1.65;1.55;;;1.40;99.90;;;;;;4941373;29;20208;-68
2023/03/08 05:26:59;;;;;;;1.10;0.77;;;1.40;99.90;;;;;;4946889;28;20206;-68
2023/03/08 05:29:25;;;;;;;1.17;1.13;;;1.40;99.90;;;;;;4938315;28;20240;-68
2023/03/08 05:31:52;;;;;;;0.30;0.30;;;1.40;99.90;;;;;;4930846;29;20202;-68
2023/03/08 05:34:19;;;;;;;1.50;1.40;;;1.40;99.90;;;;;;4927294;29;20241;-68
2023/03/08 05:36:47;;;;;;;1.50;1.50;;;1.40;99.90;;;;;;4931575;29;20570;-68
2023/03/08 05:39:14;;;;;;;2.28;2.10;;;1.40;99.90;;;;;;4930289;29;20232;-68
2023/03/08 05:41:40;;;;;;;1.77;1.38;;;1.40;99.90;;;;;;4943690;28;20606;-68
2023/03/08 05:44:07;;;;;;;1.52;1.08;;;1.40;99.90;;;;;;4942877;28;20610;-68
2023/03/08 05:46:36;;;;;;;1.77;1.27;;;1.40;99.90;;;;;;4926829;29;20226;-68
2023/03/08 05:49:03;;;;;;;0.73;0.73;;;1.40;99.90;;;;;;4928706;29;20253;-68
2023/03/08 05:51:30;;;;;;;0.80;0.80;;;1.40;99.90;;;;;;4921931;29;20675;-68
2023/03/08 05:53:58;;;;;;;1.05;1.05;;;1.40;99.90;;;;;;4929661;29;20222;-68
2023/03/08 05:56:25;;;;;;;0.73;0.73;;;1.40;99.90;;;;;;4922943;29;20237;-69
2023/03/08 05:58:52;;;;;;;0.40;0.40;;;1.40;99.90;;;;;;4925797;29;20221;-68
2023/03/08 06:01:20;;;;;;;1.27;0.60;;;1.40;99.90;;;;;;4940597;29;20226;-68
2023/03/08 06:03:49;;;;;;;0.65;0.65;;;1.40;99.90;;;;;;4931286;28;20206;-70
2023/03/08 06:06:16;;;;;;;1.65;1.55;;;1.50;99.90;;;;;;4923281;29;20230;-70
2023/03/08 06:08:43;;;;;;;1.30;1.10;;;1.40;99.90;;;;;;4931072;29;20226;-69
2023/03/08 06:11:11;;;;;;;2.08;2.03;;;1.40;99.90;;;;;;4926653;29;20220;-70
2023/03/08 06:13:38;;;;;;;1.40;1.38;;;1.40;99.90;;;;;;4926591;29;20221;-69
2023/03/08 06:16:05;;;;;;;0.88;0.88;;;1.50;99.90;;;;;;4924844;28;20217;-70
2023/03/08 06:18:33;;;;;;;1.48;1.33;;;1.50;99.90;;;;;;4945751;29;20228;-71
2023/03/08 06:21:01;;;;;;;3.30;2.25;;;1.50;99.90;;;;;;4928154;28;20229;-70
2023/03/08 06:23:30;;;;;;;1.10;0.95;;;1.50;99.90;;;;;;4935766;29;20205;-69
2023/03/08 06:25:57;;;;;;;0.68;0.68;;;1.50;99.90;;;;;;4932069;28;20206;-70
2023/03/08 06:28:26;;;;;;;2.08;1.98;;;1.50;99.90;;;;;;4922684;28;20266;-71
2023/03/08 06:30:54;;;;;;;1.73;1.63;;;1.60;99.90;;;;;;4948503;29;20205;-70
2023/03/08 06:33:24;;;;;;;29.55;2.42;;;1.60;99.90;;;;;;4924822;28;20214;-70
2023/03/08 06:35:59;;;;;;;0.75;0.75;;;1.60;99.90;;;;;;4932455;29;20221;-70
2023/03/08 06:38:26;;;;;;;3.03;1.63;;;1.60;99.90;;;;;;4932867;29;20209;-69
2023/03/08 06:40:53;;;;;;;1.25;1.15;;;1.50;99.90;;;;;;4942711;29;20218;-70
2023/03/08 06:43:20;;;;;;;1.00;1.00;;;1.60;99.90;;;;;;4928727;29;20210;-70
2023/03/08 06:45:48;;;;;;;0.50;0.50;;;1.60;99.90;;;;;;4930599;29;20210;-70
2023/03/08 06:48:15;;;;;;;1.08;1.00;;;1.60;99.90;;;;;;4924498;29;20206;-70
2023/03/08 06:50:42;;;;;;;1.00;0.93;;;1.60;99.90;;;;;;4927389;29;20566;-69
2023/03/08 06:53:09;;;;;;;0.68;0.68;;;1.70;99.90;;;;;;4927122;28;20205;-70
2023/03/08 06:55:36;;;;;;;1.73;1.63;;;1.70;99.90;;;;;;4925616;29;20408;-69
2023/03/08 06:58:03;;;;;;;2.50;1.50;;;1.70;99.90;;;;;;4932523;28;20213;-70
2023/03/08 07:00:29;;;;;;;1.60;1.20;;;1.70;99.90;;;;;;4921576;29;20729;-69
2023/03/08 07:02:57;;;;;;;1.58;1.48;;;1.70;99.90;;;;;;4933761;29;20221;-69
2023/03/08 07:05:24;;;;;;;1.58;1.48;;;1.70;99.90;;;;;;4931115;29;20206;-69
2023/03/08 07:07:51;;;;;;;1.40;1.33;;;1.70;99.90;;;;;;4936712;29;20209;-69
2023/03/08 07:10:19;;;;;;;2.15;1.70;;;1.70;99.90;;;;;;4936514;29;20686;-69
2023/03/08 07:12:50;;;;;;;27.85;1.77;;;1.80;99.90;;;;;;4940979;28;20209;-68
2023/03/08 07:15:17;;;;;;;0.52;0.52;;;1.80;99.90;;;;;;4941540;29;20229;-69
2023/03/08 07:17:45;;;;;;;2.08;1.73;;;1.90;99.90;;;;;;4923858;29;20222;-69
2023/03/08 07:20:16;;;;;;;2.25;2.05;;;1.90;99.90;;;;;;4930138;29;20341;-69
2023/03/08 07:22:43;;;;;;;0.88;0.88;;;1.90;99.90;;;;;;4944484;29;20202;-68
2023/03/08 07:25:11;;;;;;;2.15;2.05;;;1.90;99.90;;;;;;4932919;28;20294;-68
2023/03/08 07:27:38;;;;;;;0.90;0.90;;;2.00;99.90;;;;;;4925407;29;20210;-68
2023/03/08 07:30:05;;;;;;;2.65;1.85;;;2.00;99.90;;;;;;4931258;29;20697;-68
2023/03/08 07:32:32;;;;;;;3.55;3.33;;;2.00;99.90;;;;;;4921702;28;20213;-68
2023/03/08 07:34:59;;;;;;;1.48;0.85;;;2.10;99.90;;;;;;4923298;29;20221;-67
2023/03/08 07:37:27;;;;;;;0.60;0.60;;;2.10;99.90;;;;;;4933082;29;20221;-66
2023/03/08 07:39:54;;;;;;;1.80;1.70;;;2.20;99.90;;;;;;4928303;29;20231;-67
2023/03/08 07:42:20;;;;;;;1.25;1.10;;;2.20;99.90;;;;;;4927846;29;20255;-67
2023/03/08 07:44:47;;;;;;;1.42;1.35;;;2.30;99.90;;;;;;4940676;28;20228;-67
2023/03/08 07:47:14;;;;;;;1.17;1.05;;;2.40;99.90;;;;;;4933723;29;20221;-66
2023/03/08 07:49:41;;;;;;;1.27;1.25;;;2.50;99.90;;;;;;4941784;29;20221;-65
2023/03/08 07:52:07;;;;;;;1.80;1.52;;;2.60;99.90;;;;;;4923794;29;20262;-67
2023/03/08 07:54:35;;;;;;;1.48;1.38;;;2.70;99.90;;;;;;4940066;29;20269;-69
2023/03/08 07:57:02;;;;;;;1.35;1.27;;;2.70;99.90;;;;;;4937557;28;20205;-67
2023/03/08 07:59:30;;;;;;;3.33;2.28;;;2.80;99.90;;;;;;4924271;28;20294;-66
2023/03/08 08:01:57;;;;;;;1.52;1.52;;;2.80;99.90;;;;;;4929320;29;20288;-66
2023/03/08 08:04:24;;;;;;;2.17;1.10;;;2.80;99.90;;;;;;4929021;29;20213;-67
2023/03/08 08:06:50;;;;;;;2.08;1.98;;;2.80;99.90;;;;;;4927725;29;20209;-68
2023/03/08 08:09:17;;;;;;;2.47;2.30;;;2.90;99.90;;;;;;4934043;29;20225;-66
2023/03/08 08:11:45;;;;;;;3.60;0.90;;;2.90;99.90;;;;;;4938031;29;20281;-67
2023/03/08 08:14:12;;;;;;;2.60;1.25;;;2.90;99.90;;;;;;4943683;28;20225;-67
2023/03/08 08:16:38;;;;;;;1.75;1.65;;;2.90;99.90;;;;;;4930310;29;20209;-66
2023/03/08 08:19:05;;;;;;;2.15;2.13;;;2.90;99.90;;;;;;4935122;29;20281;-67
2023/03/08 08:21:32;;;;;;;3.45;0.73;;;2.90;99.90;;;;;;4938011;28;20577;-67
2023/03/08 08:24:00;;;;;;;5.90;3.08;;;2.90;99.90;;;;;;4928252;29;20207;-65
2023/03/08 08:26:27;;;;;;;1.27;1.17;;;2.90;99.90;;;;;;4937377;29;20221;-67
2023/03/08 08:28:55;;;;;;;2.33;1.95;;;2.90;99.90;;;;;;4920653;29;20867;-66
2023/03/08 08:31:24;;;;;;;1.50;1.50;;;2.90;99.90;;;;;;4939015;29;20222;-66
2023/03/08 08:33:51;;;;;;;4.47;3.45;;;2.90;99.90;;;;;;4931128;28;20296;-67
2023/03/08 08:36:19;;;;;;;3.60;3.30;;;3.00;99.90;;;;;;4932870;29;20206;-67
2023/03/08 08:38:47;;;;;;;1.60;1.50;;;3.00;99.90;;;;;;4920351;29;20317;-66
2023/03/08 08:41:15;;;;;;;45.72;33.88;;;3.00;99.90;;;;;;4931272;29;20214;-67
2023/03/08 08:43:43;;;;;;;2.10;1.95;;;3.10;99.90;;;;;;4944924;29;20209;-67
2023/03/08 08:46:11;;;;;;;1.27;1.15;;;3.10;99.90;;;;;;4943597;28;20212;-66
2023/03/08 08:48:38;;;;;;;0.50;0.50;;;3.10;99.90;;;;;;4932175;29;20232;-67
2023/03/08 08:51:06;;;;;;;0.73;0.73;;;3.10;99.90;;;;;;4924797;28;20209;-66
2023/03/08 08:53:33;;;;;;;22.67;2.35;;;3.20;99.90;;;;;;4917711;29;20233;-66
2023/03/08 08:56:09;;;;;;;5.05;1.52;;;3.10;99.90;;;;;;4923094;29;20698;-65
2023/03/08 08:58:35;;;;;;;3.78;1.63;;;3.20;99.90;;;;;;4941056;29;20231;-65
2023/03/08 09:01:02;;;;;;;2.70;1.35;;;3.20;99.90;;;;;;4933318;28;20205;-68
2023/03/08 09:03:30;;;;;;;1.40;0.85;;;3.20;99.90;;;;;;4936243;29;20213;-70
2023/03/08 09:05:58;;;;;;;5.28;1.85;;;3.20;99.90;;;;;;4930315;28;20228;-69
2023/03/08 09:08:25;;;;;;;11.10;1.30;;;3.20;99.90;;;;;;4934450;28;20220;-69
2023/03/08 09:10:51;;;;;;;1.45;1.35;;;3.30;99.90;;;;;;4924687;28;20296;-69
2023/03/08 09:13:18;;;;;;;2.00;1.90;;;3.30;99.90;;;;;;4949572;29;20213;-70
2023/03/08 09:15:45;;;;;;;1.33;1.23;;;3.40;99.90;;;;;;4927179;29;20234;-70
2023/03/08 09:18:11;;;;;;;2.50;2.00;;;3.40;99.90;;;;;;4921383;29;20203;-69
2023/03/08 09:20:39;;;;;;;1.73;1.73;;;3.50;99.90;;;;;;4924625;29;20213;-68
2023/03/08 09:23:07;;;;;;;13.27;8.00;;;3.50;99.90;;;;;;4919641;29;20261;-69
2023/03/08 09:25:33;;;;;;;3.60;3.40;;;3.60;99.90;;;;;;4915150;28;20564;-70
2023/03/08 09:28:00;;;;;;;4.93;4.15;;;3.70;99.90;;;;;;4921196;29;20214;-70
2023/03/08 09:30:28;;;;;;;8.48;4.68;;;3.80;99.90;;;;;;4925021;29;20220;-68
2023/03/08 09:32:55;;;;;;;1.20;0.52;;;3.80;99.90;;;;;;4927152;28;20212;-70
2023/03/08 09:35:21;;;;;;;3.13;1.95;;;3.80;99.90;;;;;;4937222;29;20228;-69
2023/03/08 09:37:49;;;;;;;4.38;2.97;;;3.80;99.90;;;;;;4920262;29;20211;-70
2023/03/08 09:40:21;;;;;;;2.15;2.05;;;3.80;99.90;;;;;;4923305;29;20605;-68
2023/03/08 09:42:48;;;;;;;5.65;2.45;;;3.90;99.90;;;;;;4924566;29;20218;-69
2023/03/08 09:45:23;;;;;;;3.45;2.08;;;4.00;99.90;;;;;;4920060;29;20213;-69
2023/03/08 09:47:55;;;;;;;1.17;1.15;;;4.10;99.90;;;;;;4919608;29;20261;-69
2023/03/08 09:50:45;;;;;;;9.57;2.17;;;4.10;99.90;;;;;;4937068;29;20226;-68
2023/03/08 09:53:24;;;;;;;1.88;1.77;;;4.30;99.90;;;;;;4923273;29;20595;-69
2023/03/08 09:55:55;;;;;;;79.45;43.50;;;4.30;99.90;;;;;;4937575;29;20261;-69
2023/03/08 09:58:31;;;;;;;20.73;11.90;;;4.40;99.90;;;;;;4935736;29;20219;-69
2023/03/08 10:01:03;;;;;;;1.42;1.40;;;4.50;99.90;;;;;;4932757;29;20205;-67
2023/03/08 10:04:18;;;;;;;1.52;1.48;;;4.60;99.90;;;;;;4931722;29;20575;-68
2023/03/08 10:06:53;;;;;;;1.23;1.23;;;4.70;99.90;;;;;;4928898;29;20213;-67
2023/03/08 10:09:32;;;;;;;5.45;1.30;;;4.70;99.90;;;;;;4933960;28;20248;-69
2023/03/08 10:12:10;;;;;;;0.90;0.90;;;4.70;99.90;;;;;;4941907;28;20209;-69
2023/03/08 10:14:42;;;;;;;1.67;1.63;;;4.80;99.90;;;;;;4931175;29;20256;-70
2023/03/08 10:17:15;;;;;;;2.17;0.88;;;4.80;99.90;;;;;;4919494;28;20210;-69
2023/03/08 10:19:46;;;;;;;1.15;1.15;;;4.80;99.90;;;;;;4948703;28;20319;-71
2023/03/08 10:22:18;;;;;;;1.40;1.30;;;4.90;99.90;;;;;;4928665;28;20206;-67
2023/03/08 10:24:51;;;;;;;1.40;1.02;;;4.90;99.90;;;;;;4924164;29;20205;-68
2023/03/08 10:27:22;;;;;;;0.32;0.32;;;4.90;99.90;;;;;;4921649;29;20217;-70
2023/03/08 10:29:50;;;;;;;1.40;1.40;;;4.90;99.90;;;;;;4924371;29;20246;-68
2023/03/08 10:32:17;;;;;;;4.78;3.00;;;5.00;99.90;;;;;;4928796;29;20596;-71
2023/03/08 10:34:44;;;;;;;2.15;1.88;;;5.10;99.90;;;;;;4942489;29;20225;-69
2023/03/08 10:37:11;;;;;;;1.35;1.30;;;5.00;99.90;;;;;;4935367;28;20240;-69
2023/03/08 10:39:49;;;;;;;0.90;0.90;;;5.10;99.90;;;;;;4926958;29;20226;-69
2023/03/08 10:42:17;;;;;;;0.52;0.52;;;5.00;99.90;;;;;;4935028;29;20217;-70
2023/03/08 10:44:47;;;;;;;3.03;1.00;;;5.10;99.90;;;;;;4927344;29;20209;-70
2023/03/08 10:47:20;;;;;;;3.92;3.58;;;5.00;99.90;;;;;;4930648;29;20257;-70
2023/03/08 10:49:47;;;;;;;2.30;1.73;;;5.10;99.90;;;;;;4936992;29;20225;-71
2023/03/08 10:52:25;;;;;;;1.80;1.80;;;5.10;99.90;;;;;;4928997;28;20202;-71
2023/03/08 10:55:01;;;;;;;2.47;1.48;;;5.20;99.90;;;;;;4942846;29;20217;-69
2023/03/08 10:57:30;;;;;;;0.70;0.70;;;5.00;99.90;;;;;;4920467;28;20209;-72
2023/03/08 11:00:01;;;;;;;6.43;0.50;;;4.80;99.90;;;;;;4926117;29;20277;-72
2023/03/08 11:02:28;;;;;;;1.10;1.00;;;4.70;99.90;;;;;;4938527;29;20217;-71
2023/03/08 11:04:56;;;;;;;3.80;2.08;;;4.70;99.90;;;;;;4928066;29;20225;-70
2023/03/08 11:07:25;;;;;;;16.73;6.45;;;4.80;99.90;;;;;;4935547;29;20608;-73
2023/03/08 11:09:52;;;;;;;12.88;4.65;;;4.90;99.90;;;;;;4929145;29;20588;-72
2023/03/08 11:12:23;;;;;;;4.82;3.08;;;5.00;99.90;;;;;;4932671;29;20220;-70
2023/03/08 11:14:52;;;;;;;4.65;2.92;;;5.10;99.90;;;;;;4935725;29;20273;-70
2023/03/08 11:17:25;;;;;;;1.67;1.17;;;5.10;99.90;;;;;;4932786;29;20218;-72
2023/03/08 11:19:58;;;;;;;3.15;2.90;;;5.20;99.90;;;;;;4937608;29;20613;-70
2023/03/08 11:22:44;;;;;;;2.47;1.23;;;5.30;99.90;;;;;;4952457;23;20300;-68
2023/03/08 11:25:18;;;;;;;6.43;5.20;;;5.40;99.90;;;;;;4939928;29;20309;-70
2023/03/08 11:27:58;;;;;;;1.45;1.20;;;5.50;99.90;;;;;;4934231;29;20221;-70
2023/03/08 11:30:38;;;;;;;1.17;1.17;;;5.60;99.90;;;;;;4936032;29;20217;-69
2023/03/08 11:33:45;;;;;;;0.80;0.80;;;5.50;99.90;;;;;;4931845;29;20227;-69
2023/03/08 11:36:18;;;;;;;3.28;3.08;;;5.30;99.90;;;;;;4912912;29;20674;-68
2023/03/08 11:38:50;;;;;;;0.65;0.65;;;5.30;99.90;;;;;;4914676;29;20210;-70
2023/03/08 11:41:23;;;;;;;1.27;1.20;;;5.20;99.90;;;;;;4916965;29;20211;-70
2023/03/08 11:44:33;;;;;;;0.40;0.40;;;5.10;99.90;;;;;;4919977;29;20230;-72
2023/03/08 11:47:42;;;;;;;0.98;0.98;;;5.10;99.90;;;;;;4902494;29;20226;-72
2023/03/08 11:50:15;;;;;;;1.15;1.15;;;5.20;99.90;;;;;;4870801;29;20212;-71
2023/03/08 11:52:51;;;;;;;2.28;2.17;;;5.30;99.90;;;;;;4910038;29;20270;-71
2023/03/08 11:55:33;;;;;;;1.67;1.67;;;5.40;99.90;;;;;;4908851;29;20235;-70
2023/03/08 11:58:03;;;;;;;3.88;1.38;;;5.50;99.90;;;;;;4914177;29;20709;-71
2023/03/08 12:00:35;;;;;;;6.28;4.82;;;5.60;99.90;;;;;;4919049;29;20590;-69
2023/03/08 12:03:19;;;;;;;5.43;1.20;;;5.70;99.90;;;;;;4910677;29;20249;-69
2023/03/08 12:05:50;;;;;;;9.93;4.82;;;5.70;99.90;;;;;;4911841;29;20297;-71
2023/03/08 12:08:21;;;;;;;4.15;3.70;;;5.70;99.90;;;;;;4921903;29;20306;-68
2023/03/08 12:10:55;;;;;;;1.70;1.10;;;5.60;99.90;;;;;;4917793;29;20217;-68
2023/03/08 12:13:28;;;;;;;0.90;0.90;;;5.70;99.90;;;;;;4916599;29;20301;-67
2023/03/08 12:15:59;;;;;;;0.88;0.88;;;5.50;99.90;;;;;;4904664;29;21285;-70
2023/03/08 12:18:35;;;;;;;0.47;0.32;;;5.50;99.90;;;;;;4923984;29;20653;-72
2023/03/08 12:21:13;;;;;;;0.95;0.95;;;5.60;99.90;;;;;;4916215;29;20215;-70
2023/03/08 12:23:48;;;;;;;1.23;1.13;;;5.50;99.90;;;;;;4923835;29;20319;-70
2023/03/08 12:26:21;;;;;;;0.60;0.60;;;5.40;99.90;;;;;;4933476;29;20203;-67
2023/03/08 12:28:54;;;;;;;2.17;1.48;;;5.50;99.90;;;;;;4928811;29;20230;-67
2023/03/08 12:31:25;;;;;;;3.92;3.72;;;5.50;99.90;;;;;;4931831;29;20232;-69
2023/03/08 12:33:54;;;;;;;1.70;1.60;;;5.60;99.90;;;;;;4930203;29;20226;-67
2023/03/08 12:36:21;;;;;;;13.95;6.90;;;5.70;99.90;;;;;;4938743;29;20245;-70
2023/03/08 12:38:55;;;;;;;3.28;3.08;;;5.60;99.90;;;;;;4927713;29;20194;-68
2023/03/08 12:41:26;;;;;;;0.90;0.90;;;5.50;99.90;;;;;;4919751;29;20211;-71
2023/03/08 12:44:01;;;;;;;1.15;1.00;;;5.40;99.90;;;;;;4912707;29;20237;-70
2023/03/08 12:46:29;;;;;;;10.90;7.85;;;5.40;99.90;;;;;;4912769;29;20325;-72
2023/03/08 12:48:57;;;;;;;0.82;0.82;;;5.40;99.90;;;;;;4918421;29;20215;-69
2023/03/08 12:51:32;;;;;;;0.95;0.95;;;5.40;99.90;;;;;;4907019;29;20233;-69
2023/03/08 12:54:02;;;;;;;0.70;0.70;;;5.50;99.90;;;;;;4910219;29;20229;-71
2023/03/08 12:56:32;;;;;;;0.50;0.50;;;5.50;99.90;;;;;;4910394;29;20234;-70
2023/03/08 12:59:01;;;;;;;0.50;0.50;;;5.30;99.90;;;;;;4913610;29;20226;-69
2023/03/08 13:01:35;;;;;;;1.02;1.02;;;5.10;99.90;;;;;;4909850;29;20223;-69
2023/03/08 13:04:04;;;;;;;0.57;0.57;;;5.00;99.90;;;;;;4912973;29;20230;-69
2023/03/08 13:06:49;;;;;;;0.60;0.60;;;4.90;99.90;;;;;;4904500;29;20556;-69
2023/03/08 13:09:22;;;;;;;2.80;1.98;;;5.00;99.90;;;;;;4917028;29;20209;-67
2023/03/08 13:11:56;;;;;;;0.63;0.63;;;5.00;99.90;;;;;;4913410;29;20222;-68
2023/03/08 13:14:26;;;;;;;1.08;1.05;;;5.10;99.90;;;;;;4919063;29;20230;-66
2023/03/08 13:16:53;;;;;;;2.25;1.02;;;5.00;99.90;;;;;;4913873;29;20242;-68
2023/03/08 13:19:26;;;;;;;0.43;0.43;;;5.00;99.90;;;;;;4914394;29;20310;-68
2023/03/08 13:22:00;;;;;;;0.98;0.93;;;5.10;99.90;;;;;;4913649;29;20215;-67
2023/03/08 13:24:38;;;;;;;1.30;0.80;;;5.20;99.90;;;;;;4920146;29;20257;-67
2023/03/08 13:27:23;;;;;;;2.15;1.77;;;5.20;99.90;;;;;;4913541;29;20202;-66
2023/03/08 13:29:50;;;;;;;1.08;0.68;;;5.30;99.90;;;;;;4907176;29;20228;-67
2023/03/08 13:32:18;;;;;;;0.82;0.82;;;5.50;99.90;;;;;;4919794;29;20521;-67
2023/03/08 13:34:57;;;;;;;2.05;1.15;;;5.50;99.90;;;;;;4912824;29;20593;-67
2023/03/08 13:37:26;;;;;;;1.23;0.70;;;5.60;99.90;;;;;;4919501;29;20577;-68
2023/03/08 13:39:53;;;;;;;2.17;1.88;;;5.70;99.90;;;;;;4912414;29;20218;-68
2023/03/08 13:42:23;;;;;;;1.23;1.23;;;5.60;99.90;;;;;;4916080;29;20246;-71
2023/03/08 13:44:50;;;;;;;0.57;0.57;;;5.50;99.90;;;;;;4912796;29;20217;-70
2023/03/08 13:47:22;;;;;;;1.50;1.40;;;5.40;99.90;;;;;;4911546;29;20242;-68
2023/03/08 13:49:51;;;;;;;0.40;0.40;;;5.50;99.90;;;;;;4907687;29;20207;-69
2023/03/08 13:52:21;;;;;;;0.90;0.90;;;5.50;99.90;;;;;;4919956;29;20590;-70
2023/03/08 13:54:52;;;;;;;0.47;0.47;;;5.40;99.90;;;;;;4918724;29;20689;-69
2023/03/08 13:57:22;;;;;;;0.52;0.52;;;5.40;99.90;;;;;;4920384;29;20234;-69
2023/03/08 13:59:49;;;;;;;4.05;1.35;;;5.40;99.90;;;;;;4911919;29;20777;-70
2023/03/08 14:02:21;;;;;;;0.80;0.80;;;5.30;99.90;;;;;;4910140;29;20214;-70
2023/03/08 14:04:47;;;;;;;0.10;0.10;;;5.30;99.90;;;;;;4907084;29;20246;-68
2023/03/08 14:07:21;;;;;;;1.30;0.30;;;5.20;99.90;;;;;;4921024;29;20206;-69
2023/03/08 14:09:48;;;;;;;0.85;0.85;;;5.10;99.90;;;;;;4910744;29;20266;-69
2023/03/08 14:12:18;;;;;;;0.43;0.43;;;5.10;99.90;;;;;;4911423;29;20237;-69
2023/03/08 14:14:49;;;;;;;0.40;0.40;;;5.10;99.90;;;;;;4923678;29;20213;-69
2023/03/08 14:17:20;;;;;;;1.00;0.60;;;5.10;99.90;;;;;;4911550;29;20240;-70
2023/03/08 14:19:53;;;;;;;0.45;0.45;;;5.20;99.90;;;;;;4913141;29;20210;-70
2023/03/08 14:22:23;;;;;;;0.85;0.73;;;5.20;99.90;;;;;;4923552;29;20218;-68
2023/03/08 14:24:54;;;;;;;0.75;0.75;;;5.30;99.90;;;;;;4916208;29;20225;-68
2023/03/08 14:27:39;;;;;;;0.73;0.57;;;5.30;99.90;;;;;;4911385;29;20206;-70
2023/03/08 14:30:13;;;;;;;0.88;0.88;;;5.30;99.90;;;;;;4907246;29;20214;-68
2023/03/08 14:32:41;;;;;;;0.88;0.65;;;5.20;99.90;;;;;;4913611;29;20230;-68
2023/03/08 14:35:17;;;;;;;0.90;0.90;;;5.10;99.90;;;;;;4923701;29;20273;-69
2023/03/08 14:37:46;;;;;;;0.25;0.25;;;5.20;99.90;;;;;;4910336;29;20222;-70
2023/03/08 14:40:29;;;;;;;0.28;0.28;;;5.10;99.90;;;;;;4913790;29;20210;-70
2023/03/08 14:42:57;;;;;;;0.63;0.63;;;5.10;99.90;;;;;;4915727;29;20222;-70
2023/03/08 14:45:32;;;;;;;0.40;0.40;;;5.10;99.90;;;;;;4913872;29;20582;-70
2023/03/08 14:48:00;;;;;;;0.30;0.30;;;5.10;99.90;;;;;;4904426;29;20207;-70
2023/03/08 14:50:30;;;;;;;0.40;0.40;;;5.00;99.90;;;;;;4924447;29;20213;-70
2023/03/08 14:53:00;;;;;;;0.30;0.30;;;5.00;99.90;;;;;;4922031;29;20225;-69
2023/03/08 14:55:28;;;;;;;0.88;0.88;;;4.90;99.90;;;;;;4921255;29;20707;-68
2023/03/08 14:57:58;;;;;;;1.23;0.38;;;5.00;99.90;;;;;;4915811;29;20231;-69
2023/03/08 15:00:28;;;;;;;0.20;0.20;;;5.00;99.90;;;;;;4906409;29;20221;-69
2023/03/08 15:02:55;;;;;;;0.75;0.75;;;4.90;99.90;;;;;;4909189;29;20294;-71
2023/03/08 15:05:24;;;;;;;0.40;0.40;;;4.90;99.90;;;;;;4912709;29;20223;-70
2023/03/08 15:07:52;;;;;;;0.70;0.70;;;4.90;99.90;;;;;;4916536;29;20199;-70
2023/03/08 15:10:27;;;;;;;1.95;1.13;;;4.90;99.90;;;;;;4911709;29;20221;-70
2023/03/08 15:12:55;;;;;;;0.77;0.77;;;4.90;99.90;;;;;;4910797;29;20254;-70
2023/03/08 15:15:22;;;;;;;0.10;0.10;;;4.90;99.90;;;;;;4917161;29;20381;-70
2023/03/08 15:17:49;;;;;;;0.50;0.50;;;4.90;99.90;;;;;;4920788;29;20229;-68
2023/03/08 15:20:16;;;;;;;2.33;0.65;;;4.90;99.90;;;;;;4917368;29;20202;-68
2023/03/08 15:22:47;;;;;;;0.40;0.40;;;4.80;99.90;;;;;;4917801;29;20235;-67
2023/03/08 15:25:15;;;;;;;0.65;0.65;;;4.80;99.90;;;;;;4914993;29;20686;-69
2023/03/08 15:27:43;;;;;;;1.02;0.68;;;4.70;99.90;;;;;;4924519;29;20667;-67
2023/03/08 15:30:18;;;;;;;0.63;0.63;;;4.70;99.90;;;;;;4915795;29;20219;-68
2023/03/08 15:32:45;;;;;;;1.58;0.30;;;4.60;99.90;;;;;;4919208;29;20280;-67
2023/03/08 15:35:12;;;;;;;1.58;1.58;;;4.50;99.90;;;;;;4926522;29;20222;-67
2023/03/08 15:37:39;;;;;;;0.55;0.55;;;4.50;99.90;;;;;;4914609;29;20231;-68
2023/03/08 15:40:11;;;;;;;0.35;0.35;;;4.50;99.90;;;;;;4915301;29;20214;-70
2023/03/08 15:42:37;;;;;;;0.55;0.55;;;4.50;99.90;;;;;;4918987;29;20587;-67
2023/03/08 15:45:06;;;;;;;0.20;0.20;;;4.60;99.90;;;;;;4916128;29;20222;-69
2023/03/08 15:47:33;;;;;;;0.50;0.50;;;4.50;99.90;;;;;;4912046;29;20235;-67
2023/03/08 15:50:00;;;;;;;0.30;0.30;;;4.50;99.90;;;;;;4924008;29;20218;-69
2023/03/08 15:52:27;;;;;;;0.65;0.57;;;4.40;99.90;;;;;;4912558;29;20255;-68
2023/03/08 15:54:54;;;;;;;0.30;0.30;;;4.50;99.90;;;;;;4920445;29;20202;-69
2023/03/08 15:57:21;;;;;;;0.28;0.28;;;4.50;99.90;;;;;;4915253;29;20580;-67
2023/03/08 15:59:48;;;;;;;0.65;0.65;;;4.40;99.90;;;;;;4922448;29;20226;-67
2023/03/08 16:02:18;;;;;;;0.50;0.50;;;4.40;99.90;;;;;;4915866;29;20211;-68
2023/03/08 16:04:46;;;;;;;0.88;0.80;;;4.40;99.90;;;;;;4919835;29;20663;-68
2023/03/08 16:07:14;;;;;;;0.20;0.20;;;4.40;99.90;;;;;;4932565;29;20608;-67
2023/03/08 16:09:42;;;;;;;0.65;0.65;;;4.40;99.90;;;;;;4922728;29;20215;-67
2023/03/08 16:12:09;;;;;;;0.10;0.10;;;4.40;99.90;;;;;;4914686;29;20206;-73
2023/03/08 16:14:36;;;;;;;0.50;0.50;;;4.30;99.90;;;;;;4914894;29;20226;-66
2023/03/08 16:17:03;;;;;;;0.98;0.60;;;4.30;99.90;;;;;;4914796;29;20775;-69
2023/03/08 16:19:35;;;;;;;1.52;1.52;;;4.30;99.90;;;;;;4926649;29;20298;-68
2023/03/08 16:22:03;;;;;;;0.65;0.60;;;4.30;99.90;;;;;;4915594;29;20213;-68
2023/03/08 16:24:30;;;;;;;0.43;0.40;;;4.30;99.90;;;;;;4915776;29;20333;-69
2023/03/08 16:26:58;;;;;;;0.50;0.50;;;4.30;99.90;;;;;;4914618;29;20287;-70
2023/03/08 16:29:25;;;;;;;1.60;1.02;;;4.20;99.90;;;;;;4915253;29;20656;-68
2023/03/08 16:31:52;;;;;;;0.73;0.73;;;4.20;99.90;;;;;;4912515;29;20215;-69
2023/03/08 16:34:19;;;;;;;0.45;0.45;;;4.20;99.90;;;;;;4922762;29;20626;-70
2023/03/08 16:36:47;;;;;;;1.40;1.00;;;4.20;99.90;;;;;;4914049;29;20727;-68
2023/03/08 16:39:14;;;;;;;0.88;0.88;;;4.10;99.90;;;;;;4912649;29;20210;-68
2023/03/08 16:41:41;;;;;;;0.90;0.60;;;4.10;99.90;;;;;;4913822;29;20220;-69
2023/03/08 16:44:18;;;;;;;5.68;1.33;;;4.10;99.90;;;;;;4913461;29;20730;-68
2023/03/08 16:46:44;;;;;;;2.38;1.65;;;4.10;99.90;;;;;;4914598;29;20214;-69
2023/03/08 16:49:11;;;;;;;0.52;0.52;;;4.10;99.90;;;;;;4913252;29;20218;-67
2023/03/08 16:51:38;;;;;;;0.40;0.40;;;4.10;99.90;;;;;;4914497;29;20303;-66
2023/03/08 16:54:07;;;;;;;0.40;0.40;;;4.00;99.90;;;;;;4912381;29;20226;-68
2023/03/08 16:56:33;;;;;;;1.25;1.15;;;4.00;99.90;;;;;;4915226;29;20632;-67
2023/03/08 16:59:01;;;;;;;1.00;1.00;;;4.00;99.90;;;;;;4918480;29;20214;-68
2023/03/08 17:01:28;;;;;;;0.30;0.30;;;4.00;99.90;;;;;;4917733;29;20221;-67
2023/03/08 17:03:56;;;;;;;0.63;0.45;;;3.90;99.90;;;;;;4918377;29;20260;-67
2023/03/08 17:06:24;;;;;;;0.20;0.20;;;3.90;99.90;;;;;;4917174;29;20206;-69
2023/03/08 17:08:52;;;;;;;0.55;0.55;;;3.90;99.90;;;;;;4914219;29;20309;-67
2023/03/08 17:11:22;;;;;;;0.63;0.40;;;3.90;99.90;;;;;;4916178;29;20217;-68
2023/03/08 17:13:50;;;;;;;0.30;0.30;;;3.80;99.90;;;;;;4919409;29;20238;-68
2023/03/08 17:16:17;;;;;;;1.35;1.35;;;3.80;99.90;;;;;;4920104;29;20237;-69
2023/03/08 17:18:44;;;;;;;1.17;1.17;;;3.80;99.90;;;;;;4915898;29;20222;-71
2023/03/08 17:21:11;;;;;;;0.40;0.40;;;3.80;99.90;;;;;;4918662;29;20209;-68
2023/03/08 17:23:38;;;;;;;0.85;0.85;;;3.70;99.90;;;;;;4921493;29;20245;-66
2023/03/08 17:26:05;;;;;;;3.10;0.60;;;3.70;99.90;;;;;;4944194;23;20614;-69
2023/03/08 17:28:34;;;;;;;0.47;0.47;;;3.70;99.90;;;;;;4956002;28;20207;-68
2023/03/08 17:31:01;;;;;;;0.50;0.50;;;3.70;99.90;;;;;;4949198;28;20237;-68
2023/03/08 17:33:28;;;;;;;0.70;0.70;;;3.70;99.90;;;;;;4948211;28;20233;-67
2023/03/08 17:35:57;;;;;;;0.40;0.40;;;3.70;99.90;;;;;;4964978;28;20233;-68
2023/03/08 17:38:25;;;;;;;1.40;1.38;;;3.70;99.90;;;;;;4952003;28;20229;-69
2023/03/08 17:40:52;;;;;;;0.30;0.30;;;3.60;99.90;;;;;;4948302;28;20205;-70
2023/03/08 17:43:18;;;;;;;0.75;0.75;;;3.60;99.90;;;;;;4946368;28;20281;-68
2023/03/08 17:45:56;;;;;;;0.45;0.45;;;3.60;99.90;;;;;;4958114;28;20308;-68
2023/03/08 17:48:23;;;;;;;1.40;1.40;;;3.60;99.90;;;;;;4942528;28;20209;-69
2023/03/08 17:50:50;;;;;;;0.88;0.88;;;3.60;99.90;;;;;;4950902;28;20209;-68
2023/03/08 17:53:17;;;;;;;0.88;0.88;;;3.50;99.90;;;;;;4947096;28;20567;-68
2023/03/08 17:55:44;;;;;;;1.10;1.10;;;3.50;99.90;;;;;;4945915;28;20221;-68
2023/03/08 17:58:11;;;;;;;0.55;0.55;;;3.50;99.90;;;;;;4941907;28;20253;-67
2023/03/08 18:00:38;;;;;;;0.20;0.20;;;3.50;99.90;;;;;;4950828;28;20216;-69
2023/03/08 18:03:06;;;;;;;0.93;0.90;;;3.50;99.90;;;;;;4949459;28;20213;-69
2023/03/08 18:05:33;;;;;;;0.70;0.70;;;3.50;99.90;;;;;;4944909;28;20225;-69
2023/03/08 18:07:59;;;;;;;0.75;0.75;;;3.50;99.90;;;;;;4947055;28;20252;-69
2023/03/08 18:10:26;;;;;;;2.03;0.47;;;3.40;99.90;;;;;;4946309;28;20220;-69
2023/03/08 18:12:53;;;;;;;1.13;1.13;;;3.40;99.90;;;;;;4948076;28;20201;-69